sensor_id;sensor_type;location;lat;lon;timestamp;temperature;humidity
698;DHT22;331;48.414;9.938;2022-07-04T00:00:43;23.30;88.60
698;DHT22;331;48.414;9.938;2022-07-04T00:03:10;23.20;88.50
698;DHT22;331;48.414;9.938;2022-07-04T00:05:37;23.20;88.70
698;DHT22;331;48.414;9.938;2022-07-04T00:08:05;23.20;88.70
698;DHT22;331;48.414;9.938;2022-07-04T00:10:32;23.20;88.60
698;DHT22;331;48.414;9.938;2022-07-04T00:12:59;23.10;88.50
698;DHT22;331;48.414;9.938;2022-07-04T00:15:25;23.10;88.60
698;DHT22;331;48.414;9.938;2022-07-04T00:17:52;23.10;88.70
698;DHT22;331;48.414;9.938;2022-07-04T00:20:19;23.10;88.80
698;DHT22;331;48.414;9.938;2022-07-04T00:22:46;23.00;88.70
698;DHT22;331;48.414;9.938;2022-07-04T00:25:14;23.00;88.80
698;DHT22;331;48.414;9.938;2022-07-04T00:27:41;23.00;88.90
698;DHT22;331;48.414;9.938;2022-07-04T00:30:08;23.00;88.90
698;DHT22;331;48.414;9.938;2022-07-04T00:32:35;22.90;88.90
698;DHT22;331;48.414;9.938;2022-07-04T00:35:02;22.90;88.90
698;DHT22;331;48.414;9.938;2022-07-04T00:37:29;22.90;89.00
698;DHT22;331;48.414;9.938;2022-07-04T00:39:56;22.90;89.00
698;DHT22;331;48.414;9.938;2022-07-04T00:42:24;22.80;88.40
698;DHT22;331;48.414;9.938;2022-07-04T00:44:50;22.80;88.90
698;DHT22;331;48.414;9.938;2022-07-04T00:47:17;22.80;88.90
698;DHT22;331;48.414;9.938;2022-07-04T00:49:44;22.80;89.00
698;DHT22;331;48.414;9.938;2022-07-04T00:52:12;22.80;89.10
698;DHT22;331;48.414;9.938;2022-07-04T00:54:39;22.70;89.00
698;DHT22;331;48.414;9.938;2022-07-04T00:57:06;22.70;89.10
698;DHT22;331;48.414;9.938;2022-07-04T00:59:35;22.70;89.10
698;DHT22;331;48.414;9.938;2022-07-04T01:02:02;22.70;89.00
698;DHT22;331;48.414;9.938;2022-07-04T01:04:28;22.70;89.10
698;DHT22;331;48.414;9.938;2022-07-04T01:06:55;22.60;89.00
698;DHT22;331;48.414;9.938;2022-07-04T01:09:22;22.60;89.00
698;DHT22;331;48.414;9.938;2022-07-04T01:11:49;22.60;89.20
698;DHT22;331;48.414;9.938;2022-07-04T01:14:17;22.60;89.20
698;DHT22;331;48.414;9.938;2022-07-04T01:16:45;22.50;89.10
698;DHT22;331;48.414;9.938;2022-07-04T01:19:12;22.50;89.20
698;DHT22;331;48.414;9.938;2022-07-04T01:21:40;22.50;89.30
698;DHT22;331;48.414;9.938;2022-07-04T01:24:11;22.50;89.30
698;DHT22;331;48.414;9.938;2022-07-04T01:26:38;22.40;89.30
698;DHT22;331;48.414;9.938;2022-07-04T01:29:05;22.40;89.30
698;DHT22;331;48.414;9.938;2022-07-04T01:31:32;22.40;89.40
698;DHT22;331;48.414;9.938;2022-07-04T01:33:58;22.40;89.40
698;DHT22;331;48.414;9.938;2022-07-04T01:36:25;22.40;89.40
698;DHT22;331;48.414;9.938;2022-07-04T01:38:53;22.40;89.50
698;DHT22;331;48.414;9.938;2022-07-04T01:41:21;22.30;89.50
698;DHT22;331;48.414;9.938;2022-07-04T01:43:48;22.30;89.60
698;DHT22;331;48.414;9.938;2022-07-04T01:46:15;22.30;89.70
698;DHT22;331;48.414;9.938;2022-07-04T01:48:42;22.30;89.70
698;DHT22;331;48.414;9.938;2022-07-04T01:51:09;22.20;89.70
698;DHT22;331;48.414;9.938;2022-07-04T01:53:36;22.20;89.80
698;DHT22;331;48.414;9.938;2022-07-04T01:56:05;22.20;89.80
698;DHT22;331;48.414;9.938;2022-07-04T01:58:32;22.20;89.90
698;DHT22;331;48.414;9.938;2022-07-04T02:00:58;22.10;89.80
698;DHT22;331;48.414;9.938;2022-07-04T02:03:43;22.10;90.00
698;DHT22;331;48.414;9.938;2022-07-04T02:06:10;22.10;90.00
698;DHT22;331;48.414;9.938;2022-07-04T02:08:37;22.10;90.00
698;DHT22;331;48.414;9.938;2022-07-04T02:11:23;22.00;89.90
698;DHT22;331;48.414;9.938;2022-07-04T02:13:49;22.00;90.00
698;DHT22;331;48.414;9.938;2022-07-04T02:16:15;22.00;90.20
698;DHT22;331;48.414;9.938;2022-07-04T02:18:42;22.00;90.00
698;DHT22;331;48.414;9.938;2022-07-04T02:21:09;22.00;90.10
698;DHT22;331;48.414;9.938;2022-07-04T02:23:36;21.90;90.10
698;DHT22;331;48.414;9.938;2022-07-04T02:26:02;21.90;90.10
698;DHT22;331;48.414;9.938;2022-07-04T02:28:31;21.90;90.10
698;DHT22;331;48.414;9.938;2022-07-04T02:30:57;21.80;90.10
698;DHT22;331;48.414;9.938;2022-07-04T02:33:24;21.80;90.10
698;DHT22;331;48.414;9.938;2022-07-04T02:35:51;21.80;90.00
698;DHT22;331;48.414;9.938;2022-07-04T02:38:18;21.80;90.00
698;DHT22;331;48.414;9.938;2022-07-04T02:40:45;21.80;89.90
698;DHT22;331;48.414;9.938;2022-07-04T02:43:11;21.70;89.70
698;DHT22;331;48.414;9.938;2022-07-04T02:45:39;21.70;89.70
698;DHT22;331;48.414;9.938;2022-07-04T02:48:06;21.70;89.70
698;DHT22;331;48.414;9.938;2022-07-04T02:50:33;21.70;89.70
698;DHT22;331;48.414;9.938;2022-07-04T02:53:00;21.60;89.60
698;DHT22;331;48.414;9.938;2022-07-04T02:55:27;21.60;89.60
698;DHT22;331;48.414;9.938;2022-07-04T02:57:53;21.60;89.70
698;DHT22;331;48.414;9.938;2022-07-04T03:00:20;21.60;89.90
698;DHT22;331;48.414;9.938;2022-07-04T03:02:48;21.50;90.00
698;DHT22;331;48.414;9.938;2022-07-04T03:05:15;21.50;90.20
698;DHT22;331;48.414;9.938;2022-07-04T03:07:42;21.50;90.40
698;DHT22;331;48.414;9.938;2022-07-04T03:10:09;21.50;90.70
698;DHT22;331;48.414;9.938;2022-07-04T03:12:36;21.50;90.80
698;DHT22;331;48.414;9.938;2022-07-04T03:15:03;21.50;91.00
698;DHT22;331;48.414;9.938;2022-07-04T03:17:30;21.40;91.00
698;DHT22;331;48.414;9.938;2022-07-04T03:19:58;21.40;91.20
698;DHT22;331;48.414;9.938;2022-07-04T03:25:00;21.40;91.40
698;DHT22;331;48.414;9.938;2022-07-04T03:27:27;21.40;91.50
698;DHT22;331;48.414;9.938;2022-07-04T03:29:53;21.40;91.60
698;DHT22;331;48.414;9.938;2022-07-04T03:32:20;21.30;91.70
698;DHT22;331;48.414;9.938;2022-07-04T03:34:47;21.30;91.80
698;DHT22;331;48.414;9.938;2022-07-04T03:37:15;21.30;91.90
698;DHT22;331;48.414;9.938;2022-07-04T03:39:42;21.30;91.90
698;DHT22;331;48.414;9.938;2022-07-04T03:42:09;21.20;91.90
698;DHT22;331;48.414;9.938;2022-07-04T03:44:36;21.30;92.00
698;DHT22;331;48.414;9.938;2022-07-04T03:47:03;21.20;92.00
698;DHT22;331;48.414;9.938;2022-07-04T03:49:29;21.20;92.00
698;DHT22;331;48.414;9.938;2022-07-04T03:51:56;21.10;91.90
698;DHT22;331;48.414;9.938;2022-07-04T03:54:24;21.10;92.00
698;DHT22;331;48.414;9.938;2022-07-04T03:56:54;21.10;92.10
698;DHT22;331;48.414;9.938;2022-07-04T03:59:21;21.10;92.20
698;DHT22;331;48.414;9.938;2022-07-04T04:01:48;21.00;92.20
698;DHT22;331;48.414;9.938;2022-07-04T04:04:15;21.00;92.20
698;DHT22;331;48.414;9.938;2022-07-04T04:06:59;21.00;92.30
698;DHT22;331;48.414;9.938;2022-07-04T04:09:27;21.00;92.30
698;DHT22;331;48.414;9.938;2022-07-04T04:11:54;21.00;92.40
698;DHT22;331;48.414;9.938;2022-07-04T04:14:21;20.90;92.50
698;DHT22;331;48.414;9.938;2022-07-04T04:16:49;20.90;92.50
698;DHT22;331;48.414;9.938;2022-07-04T04:19:16;20.90;92.60
698;DHT22;331;48.414;9.938;2022-07-04T04:21:43;20.90;92.70
698;DHT22;331;48.414;9.938;2022-07-04T04:24:10;20.80;92.70
698;DHT22;331;48.414;9.938;2022-07-04T04:26:38;20.80;92.70
698;DHT22;331;48.414;9.938;2022-07-04T04:29:05;20.80;92.80
698;DHT22;331;48.414;9.938;2022-07-04T04:31:31;20.80;92.80
698;DHT22;331;48.414;9.938;2022-07-04T04:33:58;20.80;92.90
698;DHT22;331;48.414;9.938;2022-07-04T04:36:25;20.70;92.90
698;DHT22;331;48.414;9.938;2022-07-04T04:38:52;20.70;92.90
698;DHT22;331;48.414;9.938;2022-07-04T04:41:19;20.70;92.90
698;DHT22;331;48.414;9.938;2022-07-04T04:43:47;20.70;93.00
698;DHT22;331;48.414;9.938;2022-07-04T04:46:14;20.70;93.00
698;DHT22;331;48.414;9.938;2022-07-04T04:48:41;20.60;93.00
698;DHT22;331;48.414;9.938;2022-07-04T04:51:07;20.60;93.00
698;DHT22;331;48.414;9.938;2022-07-04T04:53:34;20.60;93.10
698;DHT22;331;48.414;9.938;2022-07-04T04:56:02;20.60;93.10
698;DHT22;331;48.414;9.938;2022-07-04T04:58:31;20.50;93.10
698;DHT22;331;48.414;9.938;2022-07-04T05:00:59;20.50;93.10
698;DHT22;331;48.414;9.938;2022-07-04T05:03:27;20.50;93.10
698;DHT22;331;48.414;9.938;2022-07-04T05:05:55;20.50;93.10
698;DHT22;331;48.414;9.938;2022-07-04T05:08:21;20.40;93.10
698;DHT22;331;48.414;9.938;2022-07-04T05:10:50;20.50;93.70
698;DHT22;331;48.414;9.938;2022-07-04T05:13:19;20.40;94.20
698;DHT22;331;48.414;9.938;2022-07-04T05:15:46;20.40;94.70
698;DHT22;331;48.414;9.938;2022-07-04T05:18:15;20.40;95.10
698;DHT22;331;48.414;9.938;2022-07-04T05:20:42;20.40;95.60
698;DHT22;331;48.414;9.938;2022-07-04T05:23:09;20.40;96.00
698;DHT22;331;48.414;9.938;2022-07-04T05:25:40;20.30;96.10
698;DHT22;331;48.414;9.938;2022-07-04T05:28:09;20.40;96.30
698;DHT22;331;48.414;9.938;2022-07-04T05:30:36;20.30;96.30
698;DHT22;331;48.414;9.938;2022-07-04T05:33:03;20.30;96.20
698;DHT22;331;48.414;9.938;2022-07-04T05:35:31;20.30;95.90
698;DHT22;331;48.414;9.938;2022-07-04T05:37:58;20.30;95.70
698;DHT22;331;48.414;9.938;2022-07-04T05:40:25;20.30;95.50
698;DHT22;331;48.414;9.938;2022-07-04T05:42:52;20.30;95.30
698;DHT22;331;48.414;9.938;2022-07-04T05:45:19;20.30;95.20
698;DHT22;331;48.414;9.938;2022-07-04T05:47:46;20.30;95.10
698;DHT22;331;48.414;9.938;2022-07-04T05:50:13;20.30;95.00
698;DHT22;331;48.414;9.938;2022-07-04T05:52:41;20.20;94.90
698;DHT22;331;48.414;9.938;2022-07-04T05:55:08;20.20;94.80
698;DHT22;331;48.414;9.938;2022-07-04T05:57:35;20.20;94.70
698;DHT22;331;48.414;9.938;2022-07-04T06:00:02;20.20;94.60
698;DHT22;331;48.414;9.938;2022-07-04T06:02:31;20.20;94.60
698;DHT22;331;48.414;9.938;2022-07-04T06:05:00;20.20;94.50
698;DHT22;331;48.414;9.938;2022-07-04T06:07:27;20.20;94.40
698;DHT22;331;48.414;9.938;2022-07-04T06:09:55;20.20;94.40
698;DHT22;331;48.414;9.938;2022-07-04T06:12:22;20.20;94.40
698;DHT22;331;48.414;9.938;2022-07-04T06:14:49;20.10;94.30
698;DHT22;331;48.414;9.938;2022-07-04T06:17:16;20.10;94.30
698;DHT22;331;48.414;9.938;2022-07-04T06:19:43;20.10;94.20
698;DHT22;331;48.414;9.938;2022-07-04T06:22:10;20.10;94.20
698;DHT22;331;48.414;9.938;2022-07-04T06:24:37;20.10;94.20
698;DHT22;331;48.414;9.938;2022-07-04T06:27:05;20.10;94.20
698;DHT22;331;48.414;9.938;2022-07-04T06:29:32;20.10;94.20
698;DHT22;331;48.414;9.938;2022-07-04T06:31:59;20.10;94.20
698;DHT22;331;48.414;9.938;2022-07-04T06:34:27;20.10;94.20
698;DHT22;331;48.414;9.938;2022-07-04T06:37:11;20.10;94.20
698;DHT22;331;48.414;9.938;2022-07-04T06:39:38;20.10;94.20
698;DHT22;331;48.414;9.938;2022-07-04T06:42:07;20.00;94.10
698;DHT22;331;48.414;9.938;2022-07-04T06:44:34;20.10;94.20
698;DHT22;331;48.414;9.938;2022-07-04T06:47:01;20.00;94.20
698;DHT22;331;48.414;9.938;2022-07-04T06:49:28;20.00;94.20
698;DHT22;331;48.414;9.938;2022-07-04T06:51:56;20.00;94.30
698;DHT22;331;48.414;9.938;2022-07-04T06:54:23;20.00;94.30
698;DHT22;331;48.414;9.938;2022-07-04T06:56:50;20.00;94.40
698;DHT22;331;48.414;9.938;2022-07-04T06:59:18;20.00;94.40
698;DHT22;331;48.414;9.938;2022-07-04T07:01:45;20.00;94.40
698;DHT22;331;48.414;9.938;2022-07-04T07:04:12;20.00;94.40
698;DHT22;331;48.414;9.938;2022-07-04T07:06:40;20.00;94.80
698;DHT22;331;48.414;9.938;2022-07-04T07:09:07;20.00;94.40
698;DHT22;331;48.414;9.938;2022-07-04T07:11:34;20.00;94.40
698;DHT22;331;48.414;9.938;2022-07-04T07:14:02;20.00;94.40
698;DHT22;331;48.414;9.938;2022-07-04T07:16:30;20.00;94.50
698;DHT22;331;48.414;9.938;2022-07-04T07:18:57;20.00;94.50
698;DHT22;331;48.414;9.938;2022-07-04T07:21:25;20.10;94.60
698;DHT22;331;48.414;9.938;2022-07-04T07:23:52;20.00;94.50
698;DHT22;331;48.414;9.938;2022-07-04T07:26:19;20.00;94.50
698;DHT22;331;48.414;9.938;2022-07-04T07:28:46;20.00;94.60
698;DHT22;331;48.414;9.938;2022-07-04T07:31:15;20.00;94.50
698;DHT22;331;48.414;9.938;2022-07-04T07:33:43;20.00;94.50
698;DHT22;331;48.414;9.938;2022-07-04T07:36:10;20.00;94.50
698;DHT22;331;48.414;9.938;2022-07-04T07:38:37;20.00;94.40
698;DHT22;331;48.414;9.938;2022-07-04T07:41:07;20.00;94.40
698;DHT22;331;48.414;9.938;2022-07-04T07:43:34;20.00;94.40
698;DHT22;331;48.414;9.938;2022-07-04T07:46:02;20.00;94.40
698;DHT22;331;48.414;9.938;2022-07-04T07:48:29;20.00;94.40
698;DHT22;331;48.414;9.938;2022-07-04T07:50:59;20.10;94.40
698;DHT22;331;48.414;9.938;2022-07-04T07:53:26;20.10;94.40
698;DHT22;331;48.414;9.938;2022-07-04T07:55:53;20.10;94.40
698;DHT22;331;48.414;9.938;2022-07-04T07:58:20;20.10;94.40
698;DHT22;331;48.414;9.938;2022-07-04T08:00:47;20.10;94.40
698;DHT22;331;48.414;9.938;2022-07-04T08:03:14;20.10;94.30
698;DHT22;331;48.414;9.938;2022-07-04T08:06:01;20.10;94.30
698;DHT22;331;48.414;9.938;2022-07-04T08:08:28;20.10;94.30
698;DHT22;331;48.414;9.938;2022-07-04T08:10:56;20.10;94.60
698;DHT22;331;48.414;9.938;2022-07-04T08:13:23;20.10;94.30
698;DHT22;331;48.414;9.938;2022-07-04T08:15:50;20.10;94.30
698;DHT22;331;48.414;9.938;2022-07-04T08:18:17;20.10;94.30
698;DHT22;331;48.414;9.938;2022-07-04T08:20:44;20.20;94.30
698;DHT22;331;48.414;9.938;2022-07-04T08:23:14;20.10;94.10
698;DHT22;331;48.414;9.938;2022-07-04T08:25:43;20.20;94.30
698;DHT22;331;48.414;9.938;2022-07-04T08:28:13;20.20;94.20
698;DHT22;331;48.414;9.938;2022-07-04T08:30:40;20.20;94.20
698;DHT22;331;48.414;9.938;2022-07-04T08:33:07;20.20;94.20
698;DHT22;331;48.414;9.938;2022-07-04T08:35:34;20.20;94.10
698;DHT22;331;48.414;9.938;2022-07-04T08:38:01;20.20;94.20
698;DHT22;331;48.414;9.938;2022-07-04T08:40:29;20.20;94.20
698;DHT22;331;48.414;9.938;2022-07-04T08:42:57;20.20;94.10
698;DHT22;331;48.414;9.938;2022-07-04T08:45:25;20.30;94.20
698;DHT22;331;48.414;9.938;2022-07-04T08:47:53;20.30;94.30
698;DHT22;331;48.414;9.938;2022-07-04T08:50:22;20.30;94.20
698;DHT22;331;48.414;9.938;2022-07-04T08:52:53;20.30;94.20
698;DHT22;331;48.414;9.938;2022-07-04T08:55:20;20.30;94.20
698;DHT22;331;48.414;9.938;2022-07-04T08:58:07;20.30;94.10
698;DHT22;331;48.414;9.938;2022-07-04T09:00:55;20.30;94.20
698;DHT22;331;48.414;9.938;2022-07-04T09:03:23;20.30;94.20
698;DHT22;331;48.414;9.938;2022-07-04T09:05:50;20.40;94.20
698;DHT22;331;48.414;9.938;2022-07-04T09:08:18;20.40;94.20
698;DHT22;331;48.414;9.938;2022-07-04T09:13:14;20.40;94.10
698;DHT22;331;48.414;9.938;2022-07-04T09:15:43;20.40;94.20
698;DHT22;331;48.414;9.938;2022-07-04T09:18:18;20.40;94.10
698;DHT22;331;48.414;9.938;2022-07-04T09:20:46;20.40;94.10
698;DHT22;331;48.414;9.938;2022-07-04T09:23:16;20.40;94.10
698;DHT22;331;48.414;9.938;2022-07-04T09:25:44;20.50;94.20
698;DHT22;331;48.414;9.938;2022-07-04T09:28:11;20.50;94.10
698;DHT22;331;48.414;9.938;2022-07-04T09:30:47;20.50;94.20
698;DHT22;331;48.414;9.938;2022-07-04T09:33:14;20.50;94.20
698;DHT22;331;48.414;9.938;2022-07-04T09:35:43;20.60;94.20
698;DHT22;331;48.414;9.938;2022-07-04T09:38:10;20.60;94.20
698;DHT22;331;48.414;9.938;2022-07-04T09:40:38;20.60;94.20
698;DHT22;331;48.414;9.938;2022-07-04T09:43:19;20.60;94.20
698;DHT22;331;48.414;9.938;2022-07-04T09:45:53;20.50;94.70
698;DHT22;331;48.414;9.938;2022-07-04T09:48:21;20.60;94.30
698;DHT22;331;48.414;9.938;2022-07-04T09:50:48;20.60;94.50
698;DHT22;331;48.414;9.938;2022-07-04T09:53:15;20.60;94.50
698;DHT22;331;48.414;9.938;2022-07-04T09:55:41;20.60;94.30
698;DHT22;331;48.414;9.938;2022-07-04T09:58:09;20.70;94.30
698;DHT22;331;48.414;9.938;2022-07-04T10:00:36;20.70;94.60
698;DHT22;331;48.414;9.938;2022-07-04T10:03:17;20.70;94.40
698;DHT22;331;48.414;9.938;2022-07-04T10:05:45;20.70;94.40
698;DHT22;331;48.414;9.938;2022-07-04T10:08:12;20.80;94.40
698;DHT22;331;48.414;9.938;2022-07-04T10:10:39;20.80;94.40
698;DHT22;331;48.414;9.938;2022-07-04T10:13:06;20.80;94.50
698;DHT22;331;48.414;9.938;2022-07-04T10:15:34;20.80;94.40
698;DHT22;331;48.414;9.938;2022-07-04T10:18:02;20.80;94.50
698;DHT22;331;48.414;9.938;2022-07-04T10:20:30;20.80;94.50
698;DHT22;331;48.414;9.938;2022-07-04T10:22:58;20.80;94.50
698;DHT22;331;48.414;9.938;2022-07-04T10:25:27;20.80;94.50
698;DHT22;331;48.414;9.938;2022-07-04T10:27:54;20.90;94.40
698;DHT22;331;48.414;9.938;2022-07-04T10:30:22;20.90;94.50
698;DHT22;331;48.414;9.938;2022-07-04T10:32:50;21.00;94.60
698;DHT22;331;48.414;9.938;2022-07-04T10:35:17;21.00;94.60
698;DHT22;331;48.414;9.938;2022-07-04T10:38:05;21.00;94.60
698;DHT22;331;48.414;9.938;2022-07-04T10:40:43;21.00;94.60
698;DHT22;331;48.414;9.938;2022-07-04T10:45:57;21.10;94.70
698;DHT22;331;48.414;9.938;2022-07-04T10:48:24;21.10;94.80
698;DHT22;331;48.414;9.938;2022-07-04T10:50:58;21.10;94.70
698;DHT22;331;48.414;9.938;2022-07-04T10:53:27;21.10;94.60
698;DHT22;331;48.414;9.938;2022-07-04T10:55:54;21.20;94.60
698;DHT22;331;48.414;9.938;2022-07-04T11:01:14;21.20;94.50
698;DHT22;331;48.414;9.938;2022-07-04T11:03:43;21.20;94.40
698;DHT22;331;48.414;9.938;2022-07-04T11:09:14;21.30;94.50
698;DHT22;331;48.414;9.938;2022-07-04T11:11:47;21.30;94.50
698;DHT22;331;48.414;9.938;2022-07-04T11:14:34;21.30;94.50
698;DHT22;331;48.414;9.938;2022-07-04T11:17:01;21.30;94.50
698;DHT22;331;48.414;9.938;2022-07-04T11:19:28;21.30;94.50
698;DHT22;331;48.414;9.938;2022-07-04T11:21:55;21.30;94.50
698;DHT22;331;48.414;9.938;2022-07-04T11:24:24;21.40;94.60
698;DHT22;331;48.414;9.938;2022-07-04T11:26:51;21.40;94.50
698;DHT22;331;48.414;9.938;2022-07-04T11:29:18;21.40;94.60
698;DHT22;331;48.414;9.938;2022-07-04T11:31:46;21.40;94.50
698;DHT22;331;48.414;9.938;2022-07-04T11:34:14;21.40;94.60
698;DHT22;331;48.414;9.938;2022-07-04T11:36:41;21.50;94.60
698;DHT22;331;48.414;9.938;2022-07-04T11:39:08;21.50;94.60
698;DHT22;331;48.414;9.938;2022-07-04T11:41:39;21.50;94.60
698;DHT22;331;48.414;9.938;2022-07-04T11:44:24;21.50;94.60
698;DHT22;331;48.414;9.938;2022-07-04T11:47:09;21.50;94.60
698;DHT22;331;48.414;9.938;2022-07-04T11:49:40;21.50;94.60
698;DHT22;331;48.414;9.938;2022-07-04T11:52:07;21.50;94.60
698;DHT22;331;48.414;9.938;2022-07-04T11:54:34;21.50;94.50
698;DHT22;331;48.414;9.938;2022-07-04T11:57:10;21.60;94.60
698;DHT22;331;48.414;9.938;2022-07-04T11:59:37;21.60;94.60
698;DHT22;331;48.414;9.938;2022-07-04T12:02:13;21.60;94.60
698;DHT22;331;48.414;9.938;2022-07-04T12:04:42;21.70;94.70
698;DHT22;331;48.414;9.938;2022-07-04T12:07:10;21.70;94.70
698;DHT22;331;48.414;9.938;2022-07-04T12:09:37;21.70;94.60
698;DHT22;331;48.414;9.938;2022-07-04T12:12:04;21.80;94.90
698;DHT22;331;48.414;9.938;2022-07-04T12:14:33;21.80;94.90
698;DHT22;331;48.414;9.938;2022-07-04T12:17:16;21.80;94.90
698;DHT22;331;48.414;9.938;2022-07-04T12:19:49;21.80;94.90
698;DHT22;331;48.414;9.938;2022-07-04T12:22:24;21.90;94.90
698;DHT22;331;48.414;9.938;2022-07-04T12:24:51;21.90;94.70
698;DHT22;331;48.414;9.938;2022-07-04T12:27:18;22.00;94.70
698;DHT22;331;48.414;9.938;2022-07-04T12:29:47;22.00;94.60
698;DHT22;331;48.414;9.938;2022-07-04T12:32:14;22.10;94.60
698;DHT22;331;48.414;9.938;2022-07-04T12:34:42;22.10;94.40
698;DHT22;331;48.414;9.938;2022-07-04T12:37:09;22.10;94.40
698;DHT22;331;48.414;9.938;2022-07-04T12:39:37;22.20;94.50
698;DHT22;331;48.414;9.938;2022-07-04T12:42:05;22.20;94.60
698;DHT22;331;48.414;9.938;2022-07-04T12:44:32;22.20;94.60
698;DHT22;331;48.414;9.938;2022-07-04T12:47:02;22.20;94.60
698;DHT22;331;48.414;9.938;2022-07-04T12:49:29;22.20;94.60
698;DHT22;331;48.414;9.938;2022-07-04T12:52:06;22.30;94.70
698;DHT22;331;48.414;9.938;2022-07-04T12:54:33;22.30;94.70
698;DHT22;331;48.414;9.938;2022-07-04T12:57:07;22.30;94.70
698;DHT22;331;48.414;9.938;2022-07-04T12:59:35;22.30;94.70
698;DHT22;331;48.414;9.938;2022-07-04T13:02:03;22.30;94.70
698;DHT22;331;48.414;9.938;2022-07-04T13:04:31;22.40;94.70
698;DHT22;331;48.414;9.938;2022-07-04T13:06:59;22.40;94.60
698;DHT22;331;48.414;9.938;2022-07-04T13:09:26;22.40;94.60
698;DHT22;331;48.414;9.938;2022-07-04T13:11:53;22.50;94.60
698;DHT22;331;48.414;9.938;2022-07-04T13:14:37;22.50;94.60
698;DHT22;331;48.414;9.938;2022-07-04T13:17:05;22.50;94.60
698;DHT22;331;48.414;9.938;2022-07-04T13:19:32;22.60;94.40
698;DHT22;331;48.414;9.938;2022-07-04T13:21:59;22.60;94.20
698;DHT22;331;48.414;9.938;2022-07-04T13:24:26;22.70;94.00
698;DHT22;331;48.414;9.938;2022-07-04T13:26:53;22.70;94.10
698;DHT22;331;48.414;9.938;2022-07-04T13:29:20;22.70;94.20
698;DHT22;331;48.414;9.938;2022-07-04T13:31:48;22.70;94.30
698;DHT22;331;48.414;9.938;2022-07-04T13:34:16;22.70;94.40
698;DHT22;331;48.414;9.938;2022-07-04T13:36:43;22.80;94.40
698;DHT22;331;48.414;9.938;2022-07-04T13:39:10;22.80;94.40
698;DHT22;331;48.414;9.938;2022-07-04T13:41:37;22.80;94.40
698;DHT22;331;48.414;9.938;2022-07-04T13:44:05;22.80;94.30
698;DHT22;331;48.414;9.938;2022-07-04T13:46:33;22.90;94.30
698;DHT22;331;48.414;9.938;2022-07-04T13:49:02;22.90;94.20
698;DHT22;331;48.414;9.938;2022-07-04T13:51:31;22.90;94.10
698;DHT22;331;48.414;9.938;2022-07-04T13:53:59;23.00;93.80
698;DHT22;331;48.414;9.938;2022-07-04T13:56:26;23.00;94.10
698;DHT22;331;48.414;9.938;2022-07-04T13:58:53;23.00;94.10
698;DHT22;331;48.414;9.938;2022-07-04T14:01:20;23.00;94.10
698;DHT22;331;48.414;9.938;2022-07-04T14:03:47;23.00;94.10
698;DHT22;331;48.414;9.938;2022-07-04T14:06:16;23.00;94.20
698;DHT22;331;48.414;9.938;2022-07-04T14:08:45;23.00;94.20
698;DHT22;331;48.414;9.938;2022-07-04T14:11:12;23.00;94.20
698;DHT22;331;48.414;9.938;2022-07-04T14:13:39;23.00;94.30
698;DHT22;331;48.414;9.938;2022-07-04T14:16:06;23.10;94.30
698;DHT22;331;48.414;9.938;2022-07-04T14:18:33;23.10;94.30
698;DHT22;331;48.414;9.938;2022-07-04T14:21:00;23.10;94.50
698;DHT22;331;48.414;9.938;2022-07-04T14:23:27;23.10;94.40
698;DHT22;331;48.414;9.938;2022-07-04T14:26:12;23.10;94.40
698;DHT22;331;48.414;9.938;2022-07-04T14:28:40;23.10;94.40
698;DHT22;331;48.414;9.938;2022-07-04T14:31:07;23.10;94.30
698;DHT22;331;48.414;9.938;2022-07-04T14:33:33;23.10;94.20
698;DHT22;331;48.414;9.938;2022-07-04T14:36:00;23.10;94.20
698;DHT22;331;48.414;9.938;2022-07-04T14:38:27;23.20;94.10
698;DHT22;331;48.414;9.938;2022-07-04T14:40:54;23.10;94.00
698;DHT22;331;48.414;9.938;2022-07-04T14:43:23;23.20;94.10
698;DHT22;331;48.414;9.938;2022-07-04T14:45:50;23.20;94.10
698;DHT22;331;48.414;9.938;2022-07-04T14:48:17;23.20;94.00
698;DHT22;331;48.414;9.938;2022-07-04T14:50:44;23.20;94.00
698;DHT22;331;48.414;9.938;2022-07-04T14:53:12;23.20;93.90
698;DHT22;331;48.414;9.938;2022-07-04T14:55:40;23.20;93.90
698;DHT22;331;48.414;9.938;2022-07-04T14:58:07;23.20;93.80
698;DHT22;331;48.414;9.938;2022-07-04T15:00:35;23.20;93.80
698;DHT22;331;48.414;9.938;2022-07-04T15:03:02;23.20;93.70
698;DHT22;331;48.414;9.938;2022-07-04T15:05:28;23.20;93.80
698;DHT22;331;48.414;9.938;2022-07-04T15:07:55;23.20;93.60
698;DHT22;331;48.414;9.938;2022-07-04T15:10:22;23.20;93.70
698;DHT22;331;48.414;9.938;2022-07-04T15:12:49;23.20;93.70
698;DHT22;331;48.414;9.938;2022-07-04T15:15:16;23.20;93.70
698;DHT22;331;48.414;9.938;2022-07-04T15:17:46;23.20;93.70
698;DHT22;331;48.414;9.938;2022-07-04T15:20:14;23.20;93.50
698;DHT22;331;48.414;9.938;2022-07-04T15:22:58;23.20;93.60
698;DHT22;331;48.414;9.938;2022-07-04T15:25:43;23.30;93.70
698;DHT22;331;48.414;9.938;2022-07-04T15:28:10;23.30;93.80
698;DHT22;331;48.414;9.938;2022-07-04T15:30:36;23.20;93.70
698;DHT22;331;48.414;9.938;2022-07-04T15:33:05;23.30;93.80
698;DHT22;331;48.414;9.938;2022-07-04T15:35:31;23.30;93.70
698;DHT22;331;48.414;9.938;2022-07-04T15:37:58;23.30;93.60
698;DHT22;331;48.414;9.938;2022-07-04T15:40:25;23.30;93.60
698;DHT22;331;48.414;9.938;2022-07-04T15:42:52;23.30;93.60
698;DHT22;331;48.414;9.938;2022-07-04T15:45:19;23.30;93.60
698;DHT22;331;48.414;9.938;2022-07-04T15:47:46;23.30;93.60
698;DHT22;331;48.414;9.938;2022-07-04T15:50:14;23.30;93.60
698;DHT22;331;48.414;9.938;2022-07-04T15:52:41;23.30;93.50
698;DHT22;331;48.414;9.938;2022-07-04T15:55:08;23.30;93.60
698;DHT22;331;48.414;9.938;2022-07-04T15:57:35;23.30;93.50
698;DHT22;331;48.414;9.938;2022-07-04T16:00:03;23.30;93.40
698;DHT22;331;48.414;9.938;2022-07-04T16:02:38;23.30;93.30
698;DHT22;331;48.414;9.938;2022-07-04T16:05:05;23.30;93.30
698;DHT22;331;48.414;9.938;2022-07-04T16:07:35;23.30;93.30
698;DHT22;331;48.414;9.938;2022-07-04T16:10:02;23.30;93.20
698;DHT22;331;48.414;9.938;2022-07-04T16:12:29;23.20;93.10
698;DHT22;331;48.414;9.938;2022-07-04T16:14:57;23.20;93.10
698;DHT22;331;48.414;9.938;2022-07-04T16:17:24;23.20;93.10
698;DHT22;331;48.414;9.938;2022-07-04T16:19:51;23.20;93.10
698;DHT22;331;48.414;9.938;2022-07-04T16:22:17;23.20;93.10
698;DHT22;331;48.414;9.938;2022-07-04T16:24:46;23.20;93.10
698;DHT22;331;48.414;9.938;2022-07-04T16:27:12;23.20;93.10
698;DHT22;331;48.414;9.938;2022-07-04T16:29:39;23.20;93.10
698;DHT22;331;48.414;9.938;2022-07-04T16:32:06;23.20;93.10
698;DHT22;331;48.414;9.938;2022-07-04T16:34:33;23.20;93.10
698;DHT22;331;48.414;9.938;2022-07-04T16:37:00;23.20;93.20
698;DHT22;331;48.414;9.938;2022-07-04T16:39:27;23.20;93.20
698;DHT22;331;48.414;9.938;2022-07-04T16:41:55;23.20;93.30
698;DHT22;331;48.414;9.938;2022-07-04T16:44:22;23.20;93.30
698;DHT22;331;48.414;9.938;2022-07-04T16:46:49;23.20;93.30
698;DHT22;331;48.414;9.938;2022-07-04T16:49:16;23.20;93.40
698;DHT22;331;48.414;9.938;2022-07-04T16:51:43;23.20;93.40
698;DHT22;331;48.414;9.938;2022-07-04T16:54:11;23.20;93.50